Etusivu
METAR-TAF:

METAR-TAF

Lentoasemat :

N’Djamenan kansainvälinen lentoasema

N'Djamena, Tšad

Leveyspiiri: 12-08N, Pituuspiiri: 015-02E, korkeus merenpinnasta: 295 m

Tämänhetkinen sää

Tämä raportti tehtiin 52 minuuttia sitten, kello 05.00 UTC
Tuuli 8 kn pohjoisesta
Lämpötila 14°C
Kosteus 24%
Ilmanpaine 1016 hPa
Näkyvyys: 6000 m

METAR: FTTJ 260500Z 01008KT 6000 NSC 14/M06 Q1016 NOSIG

Aika: 06:52 (05:52 UTC)

Sääennuste

Tämä raportti tehtiin 52 minuuttia sitten, kello 05.00 UTC
Ennuste voimassa 26. päivästä klo 06 UTC - 27. päivään klo 12 UTC
Tuuli 8 kn pohjoisesta
Näkyvyys: 6000 m
Ajoittain
26. päivästä klo 07 UTC - 26. päivään klo 13 UTC
Näkyvyys: 4000 m
usvaa
Ajoittain
26. päivästä klo 15 UTC - 26. päivään klo 21 UTC
Näkyvyys: 2000 m
laajalle levinnyttä pölyä

TAF: FTTJ 260500Z 2606/2712 36008KT 6000 NSC TEMPO 2607/2613 4000 HZ TEMPO 2615/2621 2000 DU

Säähavainnot ja -ennusteet yli 4000 lentoasemalta (METAR- ja TAF-raportit).

Käytössä olevat sääasemat on merkitty karttaan keltaisilla ja punaisilla pisteillä.

Aseta hiiri pisteen päälle nähdäksesi sääaseman nimen.

Klikkaa sitten nähdäksesi säähavainnot ja -ennusteet.

Kartan vaihtaminen: klikkaa mustalla rastilla varustettuja vihreitä pisteitä, niin voit zoomata sisään; viivalla varustettua vihreää pistettä, niin voit zoomata ulos tai vihreitä nuolia, niin pääset viereisille kartoille.


METAR-TAF: